createdAt,value
2022-10-18T00:00:18.659Z,9.29
2022-10-18T00:03:21.894Z,9.29
2022-10-18T00:06:24.351Z,9.31
2022-10-18T00:09:29.951Z,9.29
2022-10-18T00:12:36.677Z,9.33
2022-10-18T00:15:39.583Z,9.31
2022-10-18T00:18:45.530Z,9.27
2022-10-18T00:21:50.572Z,9.27
2022-10-18T00:24:53.059Z,9.23
2022-10-18T00:27:55.759Z,9.22
2022-10-18T00:30:58.290Z,9.18
2022-10-18T00:34:04.364Z,9.11
2022-10-18T00:37:07.134Z,9.04
2022-10-18T00:40:10.495Z,9.04
2022-10-18T00:43:16.061Z,9.02
2022-10-18T00:46:18.805Z,8.95
2022-10-18T00:49:35.625Z,8.89
2022-10-18T00:52:46.954Z,8.88
2022-10-18T00:55:49.690Z,8.90
2022-10-18T00:58:52.665Z,8.84
2022-10-18T01:01:57.178Z,8.82
2022-10-18T01:04:59.940Z,8.82
2022-10-18T01:08:31.703Z,8.81
2022-10-18T01:11:58.364Z,8.78
2022-10-18T01:15:11.710Z,8.75
2022-10-18T01:18:23.801Z,8.69
2022-10-18T01:21:42.764Z,8.69
2022-10-18T01:25:10.464Z,8.68
2022-10-18T01:28:39.395Z,8.66
2022-10-18T01:31:56.368Z,8.66
2022-10-18T01:35:05.028Z,8.68
2022-10-18T01:38:14.109Z,8.66
2022-10-18T01:41:19.167Z,8.62
2022-10-18T01:44:25.803Z,8.56
2022-10-18T01:47:28.921Z,8.56
2022-10-18T01:50:34.316Z,8.53
2022-10-18T01:53:36.790Z,8.54
2022-10-18T01:56:54.691Z,8.55
2022-10-18T02:00:15.261Z,8.57
2022-10-18T02:03:22.879Z,8.58
2022-10-18T02:06:35.688Z,8.54
2022-10-18T02:10:08.523Z,8.49
2022-10-18T02:13:16.152Z,8.46
2022-10-18T02:16:41.889Z,8.40
2022-10-18T02:19:49.603Z,8.41
2022-10-18T02:22:55.865Z,8.37
2022-10-18T02:25:58.492Z,8.38
2022-10-18T02:29:01.650Z,8.34
2022-10-18T02:32:17.483Z,8.32
2022-10-18T02:35:23.564Z,8.33
2022-10-18T02:38:27.563Z,8.25
2022-10-18T02:41:31.669Z,8.28
2022-10-18T02:44:35.210Z,8.27
2022-10-18T02:47:37.867Z,8.33
2022-10-18T02:50:40.820Z,8.25
2022-10-18T02:53:43.613Z,8.22
2022-10-18T02:56:46.015Z,8.24
2022-10-18T02:59:48.744Z,8.21
2022-10-18T03:02:52.895Z,8.14
2022-10-18T03:05:55.568Z,8.12
2022-10-18T03:08:58.216Z,8.09
2022-10-18T03:12:01.043Z,8.08
2022-10-18T03:15:03.743Z,8.08
2022-10-18T03:18:06.439Z,8.07
2022-10-18T03:21:09.087Z,8.09
2022-10-18T03:24:11.764Z,8.07
2022-10-18T03:27:14.206Z,8.04
2022-10-18T03:30:18.487Z,8.15
2022-10-18T03:33:20.940Z,8.11
2022-10-18T03:36:24.259Z,8.16
2022-10-18T03:39:26.824Z,8.10
2022-10-18T03:42:29.974Z,8.02
2022-10-18T03:45:32.716Z,7.96
2022-10-18T03:48:35.490Z,7.87
2022-10-18T03:51:38.145Z,7.83
2022-10-18T03:54:40.888Z,7.82
2022-10-18T03:57:43.260Z,7.83
2022-10-18T04:00:48.756Z,7.87
2022-10-18T04:03:51.416Z,7.82
2022-10-18T04:06:53.888Z,7.80
2022-10-18T04:09:56.608Z,7.77
2022-10-18T04:12:59.270Z,7.77
2022-10-18T04:16:02.107Z,7.72
2022-10-18T04:19:05.066Z,7.70
2022-10-18T04:22:09.100Z,7.66
2022-10-18T04:25:11.542Z,7.68
2022-10-18T04:28:14.436Z,7.69
2022-10-18T04:31:16.973Z,7.67
2022-10-18T04:34:19.599Z,7.66
2022-10-18T04:37:22.076Z,7.68
2022-10-18T04:40:24.916Z,7.65
2022-10-18T04:43:27.304Z,7.63
2022-10-18T04:46:30.110Z,7.57
2022-10-18T04:49:32.855Z,7.56
2022-10-18T04:52:35.578Z,7.55
2022-10-18T04:55:38.006Z,7.56
2022-10-18T04:58:40.791Z,7.58
2022-10-18T05:01:43.481Z,7.56
2022-10-18T05:04:46.221Z,7.58
2022-10-18T05:07:48.691Z,7.54
2022-10-18T05:10:52.157Z,7.53
2022-10-18T05:13:54.602Z,7.74
2022-10-18T05:16:57.325Z,7.92
2022-10-18T05:19:59.872Z,7.87
2022-10-18T05:23:02.706Z,7.78
2022-10-18T05:26:06.909Z,7.67
2022-10-18T05:29:09.699Z,7.62
2022-10-18T05:32:12.315Z,7.64
2022-10-18T05:35:15.040Z,7.61
2022-10-18T05:38:17.487Z,7.55
2022-10-18T05:41:20.267Z,7.52
2022-10-18T05:44:22.668Z,7.51
2022-10-18T05:47:25.481Z,7.62
2022-10-18T05:50:28.302Z,7.67
2022-10-18T05:53:36.663Z,7.77
2022-10-18T05:56:40.624Z,7.85
2022-10-18T05:59:44.405Z,7.94
2022-10-18T06:02:46.950Z,8.07
2022-10-18T06:05:49.611Z,8.11
2022-10-18T06:08:52.148Z,8.21
2022-10-18T06:11:55.447Z,8.33
2022-10-18T06:14:57.865Z,8.46
2022-10-18T06:18:00.763Z,8.57
2022-10-18T06:21:03.657Z,8.73
2022-10-18T06:24:06.665Z,8.75
2022-10-18T06:27:09.542Z,8.86
2022-10-18T06:30:12.375Z,8.91
2022-10-18T06:33:14.796Z,9.05
2022-10-18T06:36:21.971Z,9.18
2022-10-18T06:39:24.928Z,9.35
2022-10-18T06:42:28.479Z,9.44
2022-10-18T06:45:30.863Z,9.69
2022-10-18T06:48:35.658Z,9.94
2022-10-18T06:51:38.321Z,10.10
2022-10-18T06:54:41.004Z,10.20
2022-10-18T06:57:43.400Z,10.33
2022-10-18T07:00:47.007Z,10.59
2022-10-18T07:03:53.067Z,10.73
2022-10-18T07:06:56.246Z,10.79
2022-10-18T07:09:58.726Z,10.89
2022-10-18T07:13:26.940Z,10.93
2022-10-18T07:16:23.837Z,11.07
2022-10-18T07:19:26.608Z,11.17
2022-10-18T07:22:30.394Z,11.25
2022-10-18T07:25:33.234Z,11.48
2022-10-18T07:28:35.827Z,11.73
2022-10-18T07:31:39.136Z,11.95
2022-10-18T07:34:41.536Z,12.10
2022-10-18T07:37:44.348Z,12.19
2022-10-18T07:40:46.730Z,12.42
2022-10-18T07:43:51.716Z,12.65
2022-10-18T07:46:54.152Z,12.81
2022-10-18T07:49:56.823Z,13.06
2022-10-18T07:52:59.557Z,13.20
2022-10-18T07:56:09.644Z,13.37
2022-10-18T07:59:12.300Z,13.55
2022-10-18T08:02:15.043Z,13.71
2022-10-18T08:05:17.841Z,13.82
2022-10-18T08:08:22.080Z,13.98
2022-10-18T08:11:25.987Z,14.10
2022-10-18T08:14:28.430Z,14.29
2022-10-18T08:17:31.557Z,14.39
2022-10-18T08:20:36.204Z,14.55
2022-10-18T08:23:39.551Z,14.70
2022-10-18T08:26:41.937Z,14.66
2022-10-18T08:29:44.624Z,14.75
2022-10-18T08:32:46.943Z,14.82
2022-10-18T08:36:00.368Z,14.90
2022-10-18T08:39:03.275Z,15.10
2022-10-18T08:42:47.422Z,15.20
2022-10-18T08:45:53.226Z,15.43
2022-10-18T08:48:56.976Z,15.58
2022-10-18T08:51:59.482Z,15.84
2022-10-18T08:55:10.188Z,15.92
2022-10-18T08:58:26.849Z,16.00
2022-10-18T09:05:43.099Z,16.19
2022-10-18T09:09:08.839Z,16.44
2022-10-18T09:12:39.006Z,16.50
2022-10-18T09:16:01.951Z,16.65
2022-10-18T09:19:25.765Z,16.84
2022-10-18T09:22:49.903Z,16.93
2022-10-18T09:26:20.029Z,16.98
2022-10-18T09:29:53.940Z,17.15
2022-10-18T09:33:24.261Z,17.28
2022-10-18T09:36:35.456Z,17.39
2022-10-18T09:39:39.502Z,17.37
2022-10-18T09:42:53.245Z,17.35
2022-10-18T09:45:56.832Z,17.41
2022-10-18T09:49:23.359Z,17.59
2022-10-18T09:52:34.645Z,17.80
2022-10-18T09:55:58.622Z,17.79
2022-10-18T09:59:01.179Z,17.91
2022-10-18T10:02:05.127Z,17.98
2022-10-18T10:05:13.085Z,18.09
2022-10-18T10:08:15.607Z,18.07
2022-10-18T10:11:37.968Z,18.07
2022-10-18T10:14:44.318Z,18.16
2022-10-18T10:18:01.334Z,18.16
2022-10-18T10:21:07.355Z,18.19
2022-10-18T10:24:27.414Z,18.32
2022-10-18T10:27:34.983Z,18.38
2022-10-18T10:30:38.752Z,18.55
2022-10-18T10:33:46.897Z,18.50
2022-10-18T10:36:54.758Z,18.58
2022-10-18T10:40:22.116Z,18.61
2022-10-18T10:43:37.708Z,18.67
2022-10-18T10:46:41.536Z,18.66
2022-10-18T10:49:47.566Z,18.62
2022-10-18T10:52:50.251Z,18.75
2022-10-18T10:55:54.859Z,18.66
2022-10-18T10:59:07.676Z,18.82
2022-10-18T11:02:20.655Z,19.00
2022-10-18T11:05:29.439Z,19.00
2022-10-18T11:08:38.931Z,19.09
2022-10-18T11:11:49.919Z,19.11
2022-10-18T11:15:32.628Z,19.22
2022-10-18T11:18:37.855Z,19.33
2022-10-18T11:21:41.645Z,19.31
2022-10-18T11:24:44.288Z,19.24
2022-10-18T11:28:12.750Z,19.33
2022-10-18T11:31:30.228Z,19.38
2022-10-18T11:34:58.565Z,19.39
2022-10-18T11:38:10.135Z,19.40
2022-10-18T11:41:31.358Z,19.20
2022-10-18T11:44:58.267Z,19.28
2022-10-18T11:48:25.716Z,19.37
2022-10-18T11:51:33.989Z,19.55
2022-10-18T11:54:47.420Z,19.46
2022-10-18T11:58:12.243Z,19.59
2022-10-18T12:01:37.871Z,19.60
2022-10-18T12:04:59.812Z,19.61
2022-10-18T12:08:32.883Z,19.62
2022-10-18T12:11:55.841Z,19.75
2022-10-18T12:15:19.740Z,19.75
2022-10-18T12:18:26.224Z,19.83
2022-10-18T12:21:32.636Z,19.76
2022-10-18T12:24:36.005Z,19.84
2022-10-18T12:27:53.366Z,19.88
2022-10-18T12:31:26.735Z,19.96
2022-10-18T12:34:43.489Z,20.08
2022-10-18T12:38:30.798Z,19.96
2022-10-18T12:41:35.734Z,19.84
2022-10-18T12:44:38.589Z,19.99
2022-10-18T12:47:41.210Z,20.06
2022-10-18T12:50:45.309Z,20.04
2022-10-18T12:53:54.745Z,20.05
2022-10-18T12:56:59.739Z,20.09
2022-10-18T13:00:03.854Z,20.22
2022-10-18T13:03:10.135Z,20.21
2022-10-18T13:06:12.583Z,20.32
2022-10-18T13:09:21.177Z,20.43
2022-10-18T13:12:23.565Z,20.48
2022-10-18T13:15:45.017Z,20.45
2022-10-18T13:18:52.466Z,20.54
2022-10-18T13:22:19.441Z,20.60
2022-10-18T13:25:29.373Z,20.57
2022-10-18T13:28:52.364Z,20.63
2022-10-18T13:32:03.824Z,20.61
2022-10-18T13:35:44.732Z,20.73
2022-10-18T13:38:50.393Z,20.84
2022-10-18T13:41:57.733Z,20.73
2022-10-18T13:45:31.553Z,20.74
2022-10-18T13:48:34.143Z,20.78
2022-10-18T13:51:48.740Z,21.83
2022-10-18T13:54:57.652Z,23.43
2022-10-18T13:58:11.291Z,24.64
2022-10-18T14:01:26.172Z,24.15
2022-10-18T14:05:23.873Z,23.52
2022-10-18T14:08:49.169Z,22.94
2022-10-18T14:11:55.287Z,22.71
2022-10-18T14:15:25.837Z,22.45
2022-10-18T14:18:33.352Z,22.30
2022-10-18T14:21:41.554Z,22.20
2022-10-18T14:24:48.509Z,22.04
2022-10-18T14:28:08.876Z,21.80
2022-10-18T14:31:16.158Z,21.62
2022-10-18T14:34:18.964Z,21.44
2022-10-18T14:37:35.572Z,21.40
2022-10-18T14:40:40.514Z,21.49
2022-10-18T14:43:44.463Z,21.34
2022-10-18T14:46:59.203Z,21.22
2022-10-18T14:50:02.214Z,21.42
2022-10-18T14:53:13.784Z,21.42
2022-10-18T14:56:26.540Z,21.93
2022-10-18T14:59:43.695Z,21.87
2022-10-18T15:02:46.544Z,21.58
2022-10-18T15:05:53.915Z,21.04
2022-10-18T15:08:58.936Z,20.60
2022-10-18T15:12:05.547Z,20.19
2022-10-18T15:15:19.552Z,19.77
2022-10-18T15:18:25.266Z,19.59
2022-10-18T15:21:28.780Z,19.17
2022-10-18T15:24:41.403Z,18.83
2022-10-18T15:27:47.758Z,18.57
2022-10-18T15:30:50.399Z,18.22
2022-10-18T15:34:07.651Z,17.95
2022-10-18T15:37:27.095Z,17.68
2022-10-18T15:40:35.046Z,17.42
2022-10-18T15:43:37.627Z,17.14
2022-10-18T15:46:40.360Z,16.91
2022-10-18T15:49:46.283Z,16.68
2022-10-18T15:52:49.083Z,16.48
2022-10-18T15:55:57.689Z,16.27
2022-10-18T15:59:04.100Z,16.08
2022-10-18T16:02:14.196Z,15.88
2022-10-18T16:05:17.006Z,15.77
2022-10-18T16:08:25.297Z,15.58
2022-10-18T16:11:28.602Z,15.43
2022-10-18T16:14:32.018Z,15.29
2022-10-18T16:17:35.244Z,15.13
2022-10-18T16:20:37.997Z,15.00
2022-10-18T16:23:40.702Z,14.90
2022-10-18T16:26:43.227Z,14.77
2022-10-18T16:29:46.471Z,14.66
2022-10-18T16:32:49.097Z,14.59
2022-10-18T16:35:52.841Z,14.44
2022-10-18T16:38:56.624Z,14.32
2022-10-18T16:41:59.372Z,14.20
2022-10-18T16:45:01.959Z,14.11
2022-10-18T16:48:05.197Z,14.04
2022-10-18T16:51:12.500Z,13.93
2022-10-18T16:54:15.266Z,13.85
2022-10-18T16:57:17.796Z,13.72
2022-10-18T17:00:23.044Z,13.66
2022-10-18T17:03:26.234Z,13.61
2022-10-18T17:06:32.356Z,13.53
2022-10-18T17:09:36.892Z,13.44
2022-10-18T17:12:39.983Z,13.35
2022-10-18T17:15:42.550Z,13.26
2022-10-18T17:18:45.302Z,13.22
2022-10-18T17:21:47.992Z,13.19
2022-10-18T17:24:50.749Z,13.11
2022-10-18T17:27:53.143Z,13.01
2022-10-18T17:30:59.110Z,12.92
2022-10-18T17:34:02.268Z,12.87
2022-10-18T17:37:06.130Z,12.81
2022-10-18T17:40:09.341Z,12.76
2022-10-18T17:43:13.674Z,12.70
2022-10-18T17:46:17.909Z,12.66
2022-10-18T17:49:22.080Z,12.59
2022-10-18T17:52:24.511Z,12.53
2022-10-18T17:55:27.737Z,12.43
2022-10-18T17:58:30.920Z,12.39
2022-10-18T18:01:33.919Z,12.36
2022-10-18T18:04:36.622Z,12.32
2022-10-18T18:07:39.022Z,12.33
2022-10-18T18:10:41.905Z,12.27
2022-10-18T18:13:44.540Z,12.25
2022-10-18T18:16:48.213Z,12.18
2022-10-18T18:19:50.610Z,12.10
2022-10-18T18:22:53.511Z,12.05
2022-10-18T18:25:59.088Z,12.03
2022-10-18T18:32:07.956Z,12.00
2022-10-18T18:35:10.620Z,11.96
2022-10-18T18:38:13.141Z,11.94
2022-10-18T18:41:18.900Z,12.01
2022-10-18T18:44:22.051Z,11.97
2022-10-18T18:47:24.758Z,11.90
2022-10-18T18:50:28.221Z,11.81
2022-10-18T18:53:31.750Z,11.75
2022-10-18T18:56:34.474Z,11.70
2022-10-18T18:59:37.225Z,11.60
2022-10-18T19:02:40.278Z,11.59
2022-10-18T19:05:42.993Z,11.57
2022-10-18T19:08:46.607Z,11.53
2022-10-18T19:11:52.490Z,11.44
2022-10-18T19:14:54.881Z,11.36
2022-10-18T19:17:57.710Z,11.34
2022-10-18T19:21:00.087Z,11.28
2022-10-18T19:24:04.003Z,11.23
2022-10-18T19:27:09.741Z,11.22
2022-10-18T19:30:13.073Z,11.18
2022-10-18T19:33:23.788Z,11.13
2022-10-18T19:36:34.370Z,11.10
2022-10-18T19:39:37.384Z,11.11
2022-10-18T19:42:40.046Z,11.16
2022-10-18T19:45:42.404Z,11.18
2022-10-18T19:48:45.155Z,11.26
2022-10-18T19:51:47.968Z,11.21
2022-10-18T19:54:50.758Z,11.10
2022-10-18T19:57:53.241Z,11.00
2022-10-18T20:00:58.000Z,10.96
2022-10-18T20:04:01.035Z,10.89
2022-10-18T20:07:03.585Z,10.87
2022-10-18T20:10:07.155Z,10.82
2022-10-18T20:13:09.792Z,10.76
2022-10-18T20:16:14.614Z,10.64
2022-10-18T20:19:17.114Z,10.60
2022-10-18T20:22:19.846Z,10.58
2022-10-18T20:25:22.270Z,10.57
2022-10-18T20:28:26.009Z,10.49
2022-10-18T20:31:30.482Z,10.50
2022-10-18T20:34:33.200Z,10.42
2022-10-18T20:37:35.961Z,10.37
2022-10-18T20:40:39.205Z,10.32
2022-10-18T20:43:42.315Z,10.27
2022-10-18T20:46:45.645Z,10.27
2022-10-18T20:49:48.989Z,10.23
2022-10-18T20:52:51.645Z,10.18
2022-10-18T20:56:06.378Z,10.19
2022-10-18T20:59:10.225Z,10.19
2022-10-18T21:02:13.359Z,10.20
2022-10-18T21:05:16.595Z,10.17
2022-10-18T21:08:19.055Z,10.17
2022-10-18T21:11:22.588Z,10.18
2022-10-18T21:14:25.116Z,10.15
2022-10-18T21:17:27.866Z,10.13
2022-10-18T21:20:30.996Z,10.09
2022-10-18T21:23:34.144Z,10.05
2022-10-18T21:26:37.140Z,10.06
2022-10-18T21:29:39.768Z,10.02
2022-10-18T21:32:42.240Z,9.98
2022-10-18T21:35:45.072Z,9.94
2022-10-18T21:38:48.067Z,9.99
2022-10-18T21:41:50.896Z,9.96
2022-10-18T21:44:53.406Z,10.02
2022-10-18T21:47:56.070Z,10.05
2022-10-18T21:51:03.369Z,10.05
2022-10-18T21:54:08.441Z,10.07
2022-10-18T21:57:10.821Z,10.09
2022-10-18T22:00:15.360Z,10.08
2022-10-18T22:03:18.059Z,10.10
2022-10-18T22:06:21.122Z,10.11
2022-10-18T22:09:23.819Z,10.11
2022-10-18T22:12:26.235Z,10.08
2022-10-18T22:15:29.002Z,10.08
2022-10-18T22:18:33.182Z,10.07
2022-10-18T22:21:36.033Z,10.12
2022-10-18T22:24:38.423Z,10.17
2022-10-18T22:27:41.215Z,10.18
2022-10-18T22:30:43.938Z,10.21
2022-10-18T22:33:47.311Z,10.28
2022-10-18T22:36:49.953Z,10.26
2022-10-18T22:39:52.724Z,10.35
2022-10-18T22:42:55.125Z,10.37
2022-10-18T22:46:01.512Z,10.40
2022-10-18T22:49:04.316Z,10.43
2022-10-18T22:52:07.051Z,10.47
2022-10-18T22:55:09.694Z,10.48
2022-10-18T22:58:12.658Z,10.45
2022-10-18T23:01:18.181Z,10.47
2022-10-18T23:04:20.869Z,10.51
2022-10-18T23:07:23.319Z,10.52
2022-10-18T23:10:30.608Z,10.49
2022-10-18T23:13:36.117Z,10.47
2022-10-18T23:16:41.455Z,10.41
2022-10-18T23:19:44.091Z,10.34
2022-10-18T23:22:47.010Z,10.37
2022-10-18T23:25:53.998Z,10.37
2022-10-18T23:28:57.369Z,10.37
2022-10-18T23:31:59.824Z,10.39
2022-10-18T23:35:02.598Z,10.33
2022-10-18T23:38:05.023Z,10.30
2022-10-18T23:41:11.696Z,10.25
2022-10-18T23:44:14.695Z,10.29
2022-10-18T23:47:20.123Z,10.20
2022-10-18T23:50:25.384Z,10.19
2022-10-18T23:53:28.578Z,10.15
2022-10-18T23:56:30.952Z,10.07
2022-10-18T23:59:33.673Z,10.04
